Home > Products > Valid Products > TAF

000
FTUS41 KPHI 061730
TAFILG
TAF
KILG 061730Z 0618/0718 21008KT P6SM BKN250
     FM070400 VRB03KT P6SM SCT250
     FM071500 01005KT P6SM SKC=



000
FTUS41 KPHI 061730
TAFPHL
TAF
KPHL 061730Z 0618/0724 23009KT P6SM BKN250
     FM070400 VRB03KT P6SM SCT250
     FM071500 02004KT P6SM SKC=



000
FTUS41 KPHI 061730
TAFMIV
TAF
KMIV 061730Z 0618/0718 24008KT P6SM BKN250
     FM062300 00000KT P6SM SCT250
     FM071500 03006KT P6SM SKC=



000
FTUS41 KPHI 061730
TAFPNE
TAF
KPNE 061730Z 0618/0718 23007KT P6SM BKN250
     FM070300 00000KT P6SM SCT250
     FM071500 01004KT P6SM SKC=



000
FTUS41 KPHI 061730
TAFACY
TAF
KACY 061730Z 0618/0718 22007KT P6SM BKN250
     FM070100 00000KT P6SM SCT250
     FM071500 04007KT P6SM SKC=



000
FTUS41 KPHI 061730
TAFTTN
TAF
KTTN 061730Z 0618/0718 23007KT P6SM BKN250
     FM070300 00000KT P6SM SCT250
     FM071600 35003KT P6SM SKC=



000
FTUS41 KPHI 061730
TAFRDG
TAF
KRDG 061730Z 0618/0718 22006KT P6SM BKN250
     FM070300 00000KT P6SM SCT250
     FM071600 32003KT P6SM SKC=



000
FTUS41 KPHI 061730
TAFABE
TAF
KABE 061730Z 0618/0718 24009KT P6SM BKN250
     FM070300 00000KT P6SM SCT250
     FM071600 34003KT P6SM SKC=



000
FTUS41 KPHI 061459 AAA
TAFPHL
TAF AMD
KPHL 061459Z 0615/0718 22007KT P6SM BKN250
     FM070200 VRB04KT P6SM FEW250=



000
FTUS41 KPHI 061459 AAA
TAFPHL
TAF AMD
KPHL 061459Z 0615/0718 22007KT P6SM BKN250
     FM070200 VRB04KT P6SM FEW250=



000
FTUS41 KPHI 061138
TAFPNE
TAF
KPNE 061138Z 0612/0712 VRB02KT P6SM SCT250
     FM061600 23006KT P6SM BKN250
     FM070200 VRB03KT P6SM SKC=



000
FTUS41 KPHI 061138
TAFILG
TAF
KILG 061138Z 0612/0712 27003KT P6SM BKN250
     FM061600 21006KT P6SM BKN250
     FM070200 VRB03KT P6SM FEW250=



000
FTUS41 KPHI 061138
TAFTTN
TAF
KTTN 061138Z 0612/0712 VRB02KT P6SM SCT250
     FM061600 23006KT P6SM BKN250
     FM070200 VRB02KT P6SM SKC=



000
FTUS41 KPHI 061138
TAFACY
TAF
KACY 061138Z 0612/0712 VRB02KT P6SM SCT250
     FM061600 22006KT P6SM BKN250
     FM070100 VRB03KT P6SM SCT250=



000
FTUS41 KPHI 061138
TAFMIV
TAF
KMIV 061138Z 0612/0712 VRB02KT P6SM SCT250
     FM061600 23005KT P6SM BKN250
     FM062300 VRB02KT P6SM SCT250=



000
FTUS41 KPHI 061138
TAFPHL
TAF
KPHL 061138Z 0612/0718 25004KT P6SM BKN250
     FM061600 22007KT P6SM BKN250
     FM070200 VRB04KT P6SM FEW250=



000
FTUS41 KPHI 061138
TAFRDG
TAF
KRDG 061138Z 0612/0712 VRB03KT P6SM SCT250
     FM061600 22006KT P6SM BKN250
     FM070100 VRB02KT P6SM FEW200=



000
FTUS41 KPHI 061138
TAFABE
TAF
KABE 061138Z 0612/0712 VRB02KT P6SM SCT250
     FM061600 22007KT P6SM BKN250
     FM070100 VRB03KT P6SM FEW200=



000
FTUS41 KPHI 061138
TAFPNE
TAF
KPNE 061138Z 0612/0712 VRB02KT P6SM SCT250
     FM061600 23006KT P6SM BKN250
     FM070200 VRB03KT P6SM SKC=



000
FTUS41 KPHI 061138
TAFTTN
TAF
KTTN 061138Z 0612/0712 VRB02KT P6SM SCT250
     FM061600 23006KT P6SM BKN250
     FM070200 VRB02KT P6SM SKC=



000
FTUS41 KPHI 061138
TAFPHL
TAF
KPHL 061138Z 0612/0718 25004KT P6SM BKN250
     FM061600 22007KT P6SM BKN250
     FM070200 VRB04KT P6SM FEW250=



000
FTUS41 KPHI 061138
TAFRDG
TAF
KRDG 061138Z 0612/0712 VRB03KT P6SM SCT250
     FM061600 22006KT P6SM BKN250
     FM070100 VRB02KT P6SM FEW200=



000
FTUS41 KPHI 061138
TAFABE
TAF
KABE 061138Z 0612/0712 VRB02KT P6SM SCT250
     FM061600 22007KT P6SM BKN250
     FM070100 VRB03KT P6SM FEW200=



000
FTUS41 KPHI 061138
TAFMIV
TAF
KMIV 061138Z 0612/0712 VRB02KT P6SM SCT250
     FM061600 23005KT P6SM BKN250
     FM062300 VRB02KT P6SM SCT250=



000
FTUS41 KPHI 061138
TAFILG
TAF
KILG 061138Z 0612/0712 27003KT P6SM BKN250
     FM061600 21006KT P6SM BKN250
     FM070200 VRB03KT P6SM FEW250=



000
FTUS41 KPHI 061138
TAFACY
TAF
KACY 061138Z 0612/0712 VRB02KT P6SM SCT250
     FM061600 22006KT P6SM BKN250
     FM070100 VRB03KT P6SM SCT250=



000
FTUS41 KPHI 060907 AAA
TAFPHL
TAF AMD
KPHL 060907Z 0609/0712 25004KT P6SM SCT250
     FM061300 21004KT P6SM BKN250
     FM061600 22008KT P6SM BKN250
     FM070200 VRB03KT P6SM SKC=



000
FTUS41 KPHI 060907 AAA
TAFPHL
TAF AMD
KPHL 060907Z 0609/0712 25004KT P6SM SCT250
     FM061300 21004KT P6SM BKN250
     FM061600 22008KT P6SM BKN250
     FM070200 VRB03KT P6SM SKC=



000
FTUS41 KPHI 060530
TAFTTN
TAF
KTTN 060530Z 0606/0706 VRB02KT P6SM SCT250
     FM061600 23006KT P6SM BKN250
     FM070200 VRB02KT P6SM SKC=



000
FTUS41 KPHI 060530
TAFACY
TAF
KACY 060530Z 0606/0706 VRB03KT P6SM SCT250
     FM061600 22006KT P6SM BKN250
     FM070100 VRB03KT P6SM SCT250=



000
FTUS41 KPHI 060530
TAFABE
TAF
KABE 060530Z 0606/0706 VRB02KT P6SM SCT250
     FM061600 22006KT P6SM BKN250
     FM070100 VRB03KT P6SM SCT200=



000
FTUS41 KPHI 060530
TAFPHL
TAF
KPHL 060530Z 0606/0712 VRB03KT P6SM SCT250
     FM061300 21004KT P6SM BKN250
     FM061600 22008KT P6SM BKN250
     FM070200 VRB03KT P6SM SKC=



000
FTUS41 KPHI 060530
TAFILG
TAF
KILG 060530Z 0606/0706 VRB03KT P6SM SCT250
     FM061600 21006KT P6SM BKN250
     FM070200 VRB03KT P6SM SKC=



000
FTUS41 KPHI 060530
TAFPNE
TAF
KPNE 060530Z 0606/0706 VRB03KT P6SM SCT250
     FM061600 23006KT P6SM BKN250
     FM070200 VRB03KT P6SM SKC=



000
FTUS41 KPHI 060530
TAFRDG
TAF
KRDG 060530Z 0606/0706 VRB04KT P6SM SCT250
     FM061600 22006KT P6SM BKN250
     FM070100 VRB02KT P6SM SCT200=



000
FTUS41 KPHI 060530
TAFMIV
TAF
KMIV 060530Z 0606/0706 VRB03KT P6SM SCT250
     FM061600 23005KT P6SM BKN250
     FM062300 VRB02KT P6SM SCT250=



000
FTUS41 KPHI 052322
TAFABE
TAF
KABE 052322Z 0600/0624 31006KT P6SM SKC
     FM060400 VRB03KT P6SM SCT250
     FM061600 22006KT P6SM BKN250
     FM062300 VRB03KT P6SM SCT045=



000
FTUS41 KPHI 052322
TAFTTN
TAF
KTTN 052322Z 0600/0624 32006KT P6SM SKC
     FM060400 VRB03KT P6SM SCT250
     FM061600 23006KT P6SM BKN250=



000
FTUS41 KPHI 052322
TAFMIV
TAF
KMIV 052322Z 0600/0624 30004KT P6SM SKC
     FM060400 VRB03KT P6SM SCT250
     FM061600 23004KT P6SM BKN250
     FM062300 VRB03KT P6SM SCT250=



000
FTUS41 KPHI 052322
TAFPHL
TAF
KPHL 052322Z 0600/0706 31008KT P6SM SKC
     FM060400 VRB03KT P6SM SCT250
     FM061300 21004KT P6SM BKN250
     FM061600 22008KT P6SM BKN250
     FM070200 VRB03KT P6SM SKC=



000
FTUS41 KPHI 052322
TAFPNE
TAF
KPNE 052322Z 0600/0624 31006KT P6SM SKC
     FM060400 VRB03KT P6SM SCT250
     FM061600 23006KT P6SM BKN250=



000
FTUS41 KPHI 052322
TAFACY
TAF
KACY 052322Z 0600/0624 30006KT P6SM SKC
     FM060400 VRB03KT P6SM SCT250
     FM061600 22006KT P6SM BKN250
     FM062300 VRB03KT P6SM SCT250=



000
FTUS41 KPHI 052322
TAFRDG
TAF
KRDG 052322Z 0600/0624 31006KT P6SM SKC
     FM060400 VRB03KT P6SM SCT250
     FM061600 22006KT P6SM BKN250
     FM062300 VRB03KT P6SM SCT045=



000
FTUS41 KPHI 052322
TAFMIV
TAF
KMIV 052322Z 0600/0624 30004KT P6SM SKC
     FM060400 VRB03KT P6SM SCT250
     FM061600 23004KT P6SM BKN250
     FM062300 VRB03KT P6SM SCT250=



000
FTUS41 KPHI 052322
TAFRDG
TAF
KRDG 052322Z 0600/0624 31006KT P6SM SKC
     FM060400 VRB03KT P6SM SCT250
     FM061600 22006KT P6SM BKN250
     FM062300 VRB03KT P6SM SCT045=



000
FTUS41 KPHI 052322
TAFPHL
TAF
KPHL 052322Z 0600/0706 31008KT P6SM SKC
     FM060400 VRB03KT P6SM SCT250
     FM061300 21004KT P6SM BKN250
     FM061600 22008KT P6SM BKN250
     FM070200 VRB03KT P6SM SKC=



000
FTUS41 KPHI 052322
TAFILG
TAF
KILG 052322Z 0600/0624 31006KT P6SM SKC
     FM060400 VRB03KT P6SM SCT250
     FM061600 21006KT P6SM BKN250=



000
FTUS41 KPHI 052322
TAFPNE
TAF
KPNE 052322Z 0600/0624 31006KT P6SM SKC
     FM060400 VRB03KT P6SM SCT250
     FM061600 23006KT P6SM BKN250=



000
FTUS41 KPHI 052322
TAFACY
TAF
KACY 052322Z 0600/0624 30006KT P6SM SKC
     FM060400 VRB03KT P6SM SCT250
     FM061600 22006KT P6SM BKN250
     FM062300 VRB03KT P6SM SCT250=



000
FTUS41 KPHI 052322
TAFABE
TAF
KABE 052322Z 0600/0624 31006KT P6SM SKC
     FM060400 VRB03KT P6SM SCT250
     FM061600 22006KT P6SM BKN250
     FM062300 VRB03KT P6SM SCT045=



000
FTUS41 KPHI 052322
TAFTTN
TAF
KTTN 052322Z 0600/0624 32006KT P6SM SKC
     FM060400 VRB03KT P6SM SCT250
     FM061600 23006KT P6SM BKN250=



000
FTUS41 KPHI 052322
TAFILG
TAF
KILG 052322Z 0600/0624 31006KT P6SM SKC
     FM060400 VRB03KT P6SM SCT250
     FM061600 21006KT P6SM BKN250=



000
FTUS41 KPHI 052206 AAA
TAFRDG
TAF AMD
KRDG 052206Z 0522/0618 31010G18KT P6SM FEW060
     FM060000 31010KT P6SM FEW060
     FM060200 26003KT P6SM SKC
     FM061500 23007KT P6SM SCT200=



000
FTUS41 KPHI 052206 AAA
TAFABE
TAF AMD
KABE 052206Z 0522/0618 32010G18KT P6SM FEW060
     FM060000 32008KT P6SM FEW060
     FM060200 26003KT P6SM SKC
     FM061500 23007KT P6SM SCT200=



000
FTUS41 KPHI 052205 AAA
TAFTTN
TAF AMD
KTTN 052205Z 0522/0618 32010G18KT P6SM FEW060
     FM060000 33008KT P6SM FEW060
     FM060200 29004KT P6SM SKC
     FM061500 25008KT P6SM SCT200=



000
FTUS41 KPHI 052205 AAA
TAFPNE
TAF AMD
KPNE 052205Z 0522/0618 32010G18KT P6SM FEW060
     FM060000 31008KT P6SM FEW060
     FM060300 29004KT P6SM SKC
     FM061500 26008KT P6SM SCT200=



000
FTUS41 KPHI 052204 AAA
TAFMIV
TAF AMD
KMIV 052204Z 0522/0618 30010G18KT P6SM FEW060
     FM060000 31008KT P6SM FEW060
     FM060200 28003KT P6SM SKC
     FM061500 24007KT P6SM SCT200=



000
FTUS41 KPHI 052204 AAA
TAFACY
TAF AMD
KACY 052204Z 0522/0618 30010G18KT P6SM FEW060
     FM060000 31010KT P6SM FEW060
     FM060200 30005KT P6SM SKC
     FM061500 24009KT P6SM SCT200=



000
FTUS41 KPHI 052202 AAB
TAFPHL
TAF AMD
KPHL 052202Z 0522/0624 32012G20KT P6SM FEW060
     FM060000 30012KT P6SM FEW060
     FM060300 28005KT P6SM SKC
     FM061500 22009KT P6SM SCT200=



000
FTUS41 KPHI 052202 AAB
TAFILG
TAF AMD
KILG 052202Z 0522/0618 31012G20KT P6SM FEW060
     FM060000 31010KT P6SM FEW060
     FM060200 28004KT P6SM SKC
     FM061500 22008KT P6SM SCT200=



000
FTUS41 KPHI 052050 AAA
TAFPHL
TAF AMD
KPHL 052050Z 0521/0624 30012KT P6SM SCT050
     FM060300 28005KT P6SM SKC
     FM061500 22009KT P6SM SCT200=



000
FTUS41 KPHI 051902 AAA
TAFILG
TAF AMD
KILG 051902Z 0519/0618 31015G27KT P6SM SCT050
     FM052200 31010KT P6SM FEW050
     FM060200 28004KT P6SM SKC
     FM061500 22008KT P6SM SCT200=



000
FTUS41 KPHI 051734
TAFRDG
TAF
KRDG 051734Z 0518/0618 32008G20KT P6SM BKN070
     FM052200 31010KT P6SM FEW050
     FM060200 26003KT P6SM SKC
     FM061500 23007KT P6SM SCT200=



000
FTUS41 KPHI 051734
TAFTTN
TAF
KTTN 051734Z 0518/0618 34009G20KT P6SM BKN070
     FM052200 33009KT P6SM FEW050
     FM060200 29004KT P6SM SKC
     FM061500 25008KT P6SM SCT200=



000
FTUS41 KPHI 051734
TAFILG
TAF
KILG 051734Z 0518/0618 33010G21KT P6SM BKN070
     FM052200 31010KT P6SM FEW050
     FM060200 28004KT P6SM SKC
     FM061500 22008KT P6SM SCT200=



000
FTUS41 KPHI 051734
TAFACY
TAF
KACY 051734Z 0518/0618 33013G23KT P6SM BKN020
      TEMPO 0518/0520 BKN050
     FM052000 32013G23KT P6SM BKN050
     FM052300 31010KT P6SM SCT150
     FM060200 30005KT P6SM SKC
     FM061500 24009KT P6SM SCT200=



000
FTUS41 KPHI 051734
TAFPNE
TAF
KPNE 051734Z 0518/0618 35009G20KT P6SM BKN070
     FM052200 31009KT P6SM FEW050
     FM060300 29004KT P6SM SKC
     FM061500 26008KT P6SM SCT200=



000
FTUS41 KPHI 051734
TAFMIV
TAF
KMIV 051734Z 0518/0618 32010G22KT P6SM BKN070
     FM052300 31009KT P6SM SCT150
     FM060200 28003KT P6SM SKC
     FM061500 24007KT P6SM SCT200=



000
FTUS41 KPHI 051734
TAFPHL
TAF
KPHL 051734Z 0518/0624 35011G23KT P6SM BKN070
     FM052200 31010KT P6SM FEW050
     FM060300 28005KT P6SM SKC
     FM061500 22009KT P6SM SCT200=



000
FTUS41 KPHI 051734
TAFABE
TAF
KABE 051734Z 0518/0618 34009G20KT P6SM BKN050
     FM052200 32006KT P6SM FEW050
     FM060200 26003KT P6SM SKC
     FM061500 23007KT P6SM SCT200=



000
FTUS41 KPHI 051506 AAA
TAFABE
TAF AMD
KABE 051506Z 0515/0612 35013KT P6SM OVC050
     FM051600 34014G23KT P6SM SCT120
     FM052200 32010KT P6SM FEW050
     FM060200 29003KT P6SM SKC=



000
FTUS41 KPHI 051506 AAA
TAFILG
TAF AMD
KILG 051506Z 0515/0612 34012KT P6SM OVC070
     FM051700 34012G22KT P6SM BKN070
     FM052200 31012KT P6SM FEW050
     FM060200 28004KT P6SM SKC=



000
FTUS41 KPHI 051506 AAA
TAFTTN
TAF AMD
KTTN 051506Z 0515/0612 01011KT P6SM OVC050
     FM051700 35012G22KT P6SM BKN050
     FM052200 33012KT P6SM FEW050
     FM060200 31004KT P6SM SKC=



000
FTUS41 KPHI 051506 AAA
TAFPNE
TAF AMD
KPNE 051506Z 0515/0612 01012KT P6SM OVC050
     FM051700 35012G22KT P6SM BKN050
     FM052200 31012KT P6SM FEW050
     FM060300 28004KT P6SM SKC=



000
FTUS41 KPHI 051451 AAB
TAFPHL
TAF AMD
KPHL 051451Z 0515/0618 35014KT P6SM BKN035
     FM051700 34012G25KT P6SM BKN050
     FM052200 31013KT P6SM FEW050
     FM060300 28005KT P6SM SKC
     FM061500 22006KT P6SM SCT200=



000
FTUS41 KPHI 051451 AAB
TAFPHL
TAF AMD
KPHL 051451Z 0515/0618 35014KT P6SM BKN035
     FM051700 34012G25KT P6SM BKN050
     FM052200 31013KT P6SM FEW050
     FM060300 28005KT P6SM SKC
     FM061500 22006KT P6SM SCT200=



000
FTUS41 KPHI 051314 AAA
TAFPHL
TAF AMD
KPHL 051314Z 0513/0618 35014KT 5SM -SN BR BKN025
     FM051500 34012G25KT P6SM BKN050
     FM052200 31013KT P6SM FEW050
     FM060300 28005KT P6SM SKC
     FM061500 22006KT P6SM SCT200=



000
FTUS41 KPHI 051314 AAA
TAFPHL
TAF AMD
KPHL 051314Z 0513/0618 35014KT 5SM -SN BR BKN025
     FM051500 34012G25KT P6SM BKN050
     FM052200 31013KT P6SM FEW050
     FM060300 28005KT P6SM SKC
     FM061500 22006KT P6SM SCT200=



000
FTUS41 KPHI 051139
TAFTTN
TAF
KTTN 051139Z 0512/0612 36013G21KT 1 1/2SM -SN OVC007
      TEMPO 0512/0513 3/4SM -SN OVC005
     FM051400 35014G23KT 4SM -SN BKN015 OVC100
     FM051500 34015G26KT P6SM BKN150
     FM052200 33012KT P6SM FEW050
     FM060200 31004KT P6SM SKC=



000
FTUS41 KPHI 051139
TAFRDG
TAF
KRDG 051139Z 0512/0612 35012G19KT P6SM SCT040 OVC120
     FM051600 32014G23KT P6SM SCT120
     FM052200 31010KT P6SM FEW050
     FM060200 29003KT P6SM SKC=



000
FTUS41 KPHI 051139
TAFILG
TAF
KILG 051139Z 0512/0612 34010KT 3SM -SN OVC009
     FM051230 34011G19KT 5SM -SN OVC015
     FM051300 32016G27KT P6SM SCT040 BKN150
     FM052200 31012KT P6SM FEW050
     FM060200 28004KT P6SM SKC=



000
FTUS41 KPHI 051139
TAFPNE
TAF
KPNE 051139Z 0512/0612 36015G25KT 2SM -SN OVC006
      TEMPO 0512/0513 3/4SM -SN OVC005
     FM051300 35015G25KT 4SM -SN BKN015
     FM051400 34016G27KT P6SM BKN150
     FM052200 31012KT P6SM FEW050
     FM060300 28004KT P6SM SKC=



000
FTUS41 KPHI 051139
TAFABE
TAF
KABE 051139Z 0512/0612 35010G19KT P6SM OVC050
     FM051600 34014G23KT P6SM SCT120
     FM052200 32010KT P6SM FEW050
     FM060200 29003KT P6SM SKC=



000
FTUS41 KPHI 051139
TAFPHL
TAF
KPHL 051139Z 0512/0618 36012G20KT 2SM -SN OVC008
     FM051230 35016G24KT 5SM -SN BKN015
     FM051330 33017G28KT P6SM SCT040 BKN150
     FM052200 31013KT P6SM FEW050
     FM060300 28005KT P6SM SKC
     FM061500 22006KT P6SM SCT200=



000
FTUS41 KPHI 051139
TAFACY
TAF
KACY 051139Z 0512/0612 35013G21KT 1SM -SN OVC006
      TEMPO 0512/0515 1/2SM SN VV003
     FM051600 34016G30KT 3SM -SN OVC010
     FM051700 32018G28KT P6SM SCT025 BKN150
     FM052300 31013KT P6SM SCT150
     FM060200 30005KT P6SM SKC=



000
FTUS41 KPHI 051139
TAFMIV
TAF
KMIV 051139Z 0512/0612 35016G25KT 1SM -SN OVC007
      TEMPO 0512/0514 1/2SM SN VV004
     FM051500 34018G28KT 3SM -SN OVC010
     FM051600 32015G26KT P6SM SCT025 BKN150
     FM052300 31011KT P6SM SCT150
     FM060200 28003KT P6SM SKC=



000
FTUS41 KPHI 051023 AAA
TAFILG
TAF AMD
KILG 051023Z 0510/0606 33013G21KT 1 1/2SM -SN OVC009
      TEMPO 0510/0512 3/4SM -SN VV006
     FM051300 32015G26KT 3SM -SN BKN012
     FM051400 32016G27KT P6SM SCT040 BKN150
     FM052200 31012KT P6SM FEW050
     FM060200 29004KT P6SM SKC=



000
FTUS41 KPHI 050910 AAA
TAFPHL
TAF AMD
KPHL 050910Z 0509/0612 36010KT 2SM -SN OVC006
      TEMPO 0510/0512 3/4SM -SN OVC004
     FM051200 34014G21KT 2SM -SN OVC008
     FM051330 33016G26KT 5SM -SN BKN015
     FM051500 33017G28KT P6SM SCT040 BKN150
     FM052200 32012KT P6SM FEW050
     FM060300 29005KT P6SM SKC=



000
FTUS41 KPHI 050547
TAFMIV
TAF
KMIV 050547Z 0506/0606 32004KT 6SM -RA SCT025 OVC040
     FM050700 34007KT 5SM -RA OVC025
     FM050800 34011KT 3SM -RASN OVC015
     FM051000 35013G21KT 1SM -SN OVC008
      TEMPO 0511/0514 1/2SM SN VV004
     FM051530 33016G28KT 3SM -SN OVC010
     FM051700 32015G26KT P6SM SCT030 BKN150
     FM052300 31011KT P6SM FEW040
     FM060200 30003KT P6SM SKC=



000
FTUS41 KPHI 050547
TAFILG
TAF
KILG 050547Z 0506/0606 34007KT P6SM -RA OVC045
     FM050800 34011KT 3SM -RASN OVC015
     FM051000 33013G21KT 1 1/2SM -SN OVC008
      TEMPO 0510/0513 1/2SM SN OVC005
     FM051400 32015G26KT 5SM -SN BKN015
     FM051500 32016G27KT P6SM SCT040 BKN150
     FM052200 31012KT P6SM FEW050
     FM060200 29004KT P6SM SKC=



000
FTUS41 KPHI 050547
TAFACY
TAF
KACY 050547Z 0506/0606 33008KT 6SM -RA BKN025 OVC040
     FM050900 34011KT 3SM -RASN OVC015
     FM051000 35013G21KT 1SM -SN OVC008
      TEMPO 0511/0515 1/4SM +SN VV003
     FM051600 34016G28KT 3SM -SN OVC010
     FM051730 32018G30KT P6SM SCT025 BKN150
     FM052300 31013KT P6SM FEW040
     FM060200 30005KT P6SM SKC=



000
FTUS41 KPHI 050547
TAFPHL
TAF
KPHL 050547Z 0506/0612 35007KT P6SM -RA OVC050
     FM050800 35012KT 3SM -RASN OVC015
     FM051000 34014G21KT 1 1/2SM -SN OVC008
      TEMPO 0510/0513 1/2SM SN OVC005
     FM051500 33016G26KT 5SM -SN BKN015
     FM051600 33017G28KT P6SM SCT040 BKN150
     FM052200 32012KT P6SM FEW050
     FM060300 29005KT P6SM SKC=



000
FTUS41 KPHI 050547
TAFABE
TAF
KABE 050547Z 0506/0606 01005KT P6SM OVC050
     FM050800 35008KT 6SM -RA OVC040
      TEMPO 0509/0511 3SM -SN OVC020
     FM051400 34014G24KT P6SM FEW050
     FM052200 32010KT P6SM FEW050
     FM060200 29003KT P6SM SKC=



000
FTUS41 KPHI 050547
TAFTTN
TAF
KTTN 050547Z 0506/0606 01008KT P6SM -RA OVC030
     FM050800 36012KT 3SM -RASN OVC015
     FM051000 36013G20KT 1 1/2SM -SN OVC009
      TEMPO 0510/0513 3/4SM -SN OVC005
     FM051500 35014G23KT 5SM -SN BKN015
     FM051600 34015G26KT P6SM SCT040 BKN150
     FM052200 33012KT P6SM FEW050
     FM060200 31004KT P6SM SKC=



000
FTUS41 KPHI 050547
TAFPNE
TAF
KPNE 050547Z 0506/0606 01009KT P6SM -RA OVC040
     FM050800 36012KT 3SM -RASN OVC015
     FM051000 36014G21KT 1 1/2SM -SN OVC008
      TEMPO 0510/0513 1/2SM SN OVC005
     FM051500 35015G24KT 5SM -SN BKN015
     FM051600 34016G27KT P6SM SCT040 BKN150
     FM052200 33012KT P6SM FEW050
     FM060300 30004KT P6SM SKC=



000
FTUS41 KPHI 050547
TAFRDG
TAF
KRDG 050547Z 0506/0606 34008KT P6SM SCT050 OVC100
      TEMPO 0509/0511 3SM -SN OVC030
     FM051400 33014G24KT P6SM FEW050
     FM052200 31010KT P6SM FEW050
     FM060200 29003KT P6SM SKC=



000
FTUS41 KPHI 050240 AAA
TAFTTN
TAF AMD
KTTN 050240Z 0503/0524 35007KT P6SM BKN040 OVC060
      TEMPO 0503/0505 6SM -RA OVC035
     FM050500 01011KT 4SM -RASN OVC030
     FM050900 36012G20KT 2SM -SN OVC009
     FM051500 35015G25KT P6SM SCT040 BKN150=



000
FTUS41 KPHI 050240 AAA
TAFTTN
TAF AMD
KTTN 050240Z 0503/0524 35007KT P6SM BKN040 OVC060
      TEMPO 0503/0505 6SM -RA OVC035
     FM050500 01011KT 4SM -RASN OVC030
     FM050900 36012G20KT 2SM -SN OVC009
     FM051500 35015G25KT P6SM SCT040 BKN150=



000
FTUS41 KPHI 050239 AAA
TAFPNE
TAF AMD
KPNE 050239Z 0503/0524 35007KT P6SM SCT040 OVC060
      TEMPO 0503/0505 6SM -RA OVC035
     FM050500 01011KT 4SM -RASN OVC030
     FM050900 36012G20KT 2SM -SN OVC009
     FM051500 35017G27KT P6SM SCT040 BKN150=



000
FTUS41 KPHI 050239 AAA
TAFPNE
TAF AMD
KPNE 050239Z 0503/0524 35007KT P6SM SCT040 OVC060
      TEMPO 0503/0505 6SM -RA OVC035
     FM050500 01011KT 4SM -RASN OVC030
     FM050900 36012G20KT 2SM -SN OVC009
     FM051500 35017G27KT P6SM SCT040 BKN150=



000
FTUS41 KPHI 050238 AAA
TAFPHL
TAF AMD
KPHL 050238Z 0503/0606 35007KT P6SM BKN040 OVC060
      TEMPO 0503/0505 6SM -RA OVC035
     FM050500 01011KT 4SM -RASN OVC030
     FM050900 35015G23KT 2SM -SN OVC009
     FM051400 34018G28KT P6SM SCT040 BKN150
     FM052200 31011KT P6SM SCT200=



000
FTUS41 KPHI 050238 AAA
TAFPHL
TAF AMD
KPHL 050238Z 0503/0606 35007KT P6SM BKN040 OVC060
      TEMPO 0503/0505 6SM -RA OVC035
     FM050500 01011KT 4SM -RASN OVC030
     FM050900 35015G23KT 2SM -SN OVC009
     FM051400 34018G28KT P6SM SCT040 BKN150
     FM052200 31011KT P6SM SCT200=



000
FTUS41 KPHI 042320
TAFPHL
TAF
KPHL 042320Z 0500/0606 35007KT P6SM BKN040 OVC060
      TEMPO 0501/0504 6SM -RA OVC035
     FM050400 01011KT 4SM -RASN OVC030
     FM050900 35015G23KT 2SM -SN OVC009
     FM051400 34018G28KT P6SM SCT040 BKN150
     FM052200 31011KT P6SM SCT200=



000
FTUS41 KPHI 042320
TAFRDG
TAF
KRDG 042320Z 0500/0524 34010KT P6SM FEW030 OVC100
      TEMPO 0507/0511 4SM -SN BKN030
     FM051300 33015G25KT P6SM FEW050=



000
FTUS41 KPHI 042320
TAFABE
TAF
KABE 042320Z 0500/0524 34010KT P6SM FEW030 OVC100
      TEMPO 0507/0511 4SM -SN BKN030
     FM051500 33015G25KT P6SM SCT050 BKN100=



000
FTUS41 KPHI 042320
TAFMIV
TAF
KMIV 042320Z 0500/0524 32007KT P6SM BKN070
      TEMPO 0500/0504 3SM -RA BR OVC020
     FM050400 36008KT 5SM -RA OVC020
     FM050700 34012KT 3SM -RASN OVC010
     FM050900 35013G23KT 1SM -SN OVC007
     FM051500 34015G28KT P6SM SCT025=



000
FTUS41 KPHI 042320
TAFTTN
TAF
KTTN 042320Z 0500/0524 35007KT P6SM BKN040 OVC060
      TEMPO 0501/0504 6SM -RA OVC035
     FM050400 01011KT 4SM -RASN OVC030
     FM050900 36012G20KT 2SM -SN OVC009
     FM051500 35015G25KT P6SM SCT040 BKN150=



000
FTUS41 KPHI 042320
TAFACY
TAF
KACY 042320Z 0500/0524 32007KT P6SM BKN060
      TEMPO 0500/0504 3SM -RA BR OVC020
     FM050400 36008KT 5SM -RA OVC020
     FM050700 34012G20KT 3SM -RASN OVC010
     FM050900 35019G29KT 1SM -SN OVC007
     FM051700 33016G26KT P6SM SCT025=



000
FTUS41 KPHI 042320
TAFILG
TAF
KILG 042320Z 0500/0524 35007KT P6SM BKN070
      TEMPO 0501/0505 6SM -RA OVC035
     FM050500 01011KT 4SM -RASN OVC030
     FM051000 35015G23KT 2SM -SN OVC009
     FM051300 34018G28KT P6SM SCT040 BKN150=



000
FTUS41 KPHI 042320
TAFACY
TAF
KACY 042320Z 0500/0524 32007KT P6SM BKN060
      TEMPO 0500/0504 3SM -RA BR OVC020
     FM050400 36008KT 5SM -RA OVC020
     FM050700 34012G20KT 3SM -RASN OVC010
     FM050900 35019G29KT 1SM -SN OVC007
     FM051700 33016G26KT P6SM SCT025=



000
FTUS41 KPHI 042320
TAFPNE
TAF
KPNE 042320Z 0500/0524 35007KT P6SM BKN040 OVC060
      TEMPO 0501/0504 6SM -RA OVC035
     FM050400 01011KT 4SM -RASN OVC030
     FM050900 36012G20KT 2SM -SN OVC009
     FM051500 35017G27KT P6SM SCT040 BKN150=



000
FTUS41 KPHI 042320
TAFPHL
TAF
KPHL 042320Z 0500/0606 35007KT P6SM BKN040 OVC060
      TEMPO 0501/0504 6SM -RA OVC035
     FM050400 01011KT 4SM -RASN OVC030
     FM050900 35015G23KT 2SM -SN OVC009
     FM051400 34018G28KT P6SM SCT040 BKN150
     FM052200 31011KT P6SM SCT200=



000
FTUS41 KPHI 042320
TAFILG
TAF
KILG 042320Z 0500/0524 35007KT P6SM BKN070
      TEMPO 0501/0505 6SM -RA OVC035
     FM050500 01011KT 4SM -RASN OVC030
     FM051000 35015G23KT 2SM -SN OVC009
     FM051300 34018G28KT P6SM SCT040 BKN150=



000
FTUS41 KPHI 042320
TAFMIV
TAF
KMIV 042320Z 0500/0524 32007KT P6SM BKN070
      TEMPO 0500/0504 3SM -RA BR OVC020
     FM050400 36008KT 5SM -RA OVC020
     FM050700 34012KT 3SM -RASN OVC010
     FM050900 35013G23KT 1SM -SN OVC007
     FM051500 34015G28KT P6SM SCT025=



000
FTUS41 KPHI 042320
TAFRDG
TAF
KRDG 042320Z 0500/0524 34010KT P6SM FEW030 OVC100
      TEMPO 0507/0511 4SM -SN BKN030
     FM051300 33015G25KT P6SM FEW050=



000
FTUS41 KPHI 042320
TAFTTN
TAF
KTTN 042320Z 0500/0524 35007KT P6SM BKN040 OVC060
      TEMPO 0501/0504 6SM -RA OVC035
     FM050400 01011KT 4SM -RASN OVC030
     FM050900 36012G20KT 2SM -SN OVC009
     FM051500 35015G25KT P6SM SCT040 BKN150=



000
FTUS41 KPHI 042320
TAFPNE
TAF
KPNE 042320Z 0500/0524 35007KT P6SM BKN040 OVC060
      TEMPO 0501/0504 6SM -RA OVC035
     FM050400 01011KT 4SM -RASN OVC030
     FM050900 36012G20KT 2SM -SN OVC009
     FM051500 35017G27KT P6SM SCT040 BKN150=



000
FTUS41 KPHI 042320
TAFABE
TAF
KABE 042320Z 0500/0524 34010KT P6SM FEW030 OVC100
      TEMPO 0507/0511 4SM -SN BKN030
     FM051500 33015G25KT P6SM SCT050 BKN100=



000
FTUS41 KPHI 042159 AAA
TAFMIV
TAF AMD
KMIV 042159Z 0422/0518 32007KT P6SM BKN035 OVC120
      TEMPO 0422/0502 2SM -RA BR OVC020
     FM050200 33008KT 6SM -RA OVC025
     FM050600 34012KT 2SM -SNRA OVC010
     FM050800 35013KT 1/2SM SN OVC006
     FM051300 35013G21KT 3SM -SN OVC015
     FM051500 33015G28KT 5SM -SN SCT010 BKN025=



000
FTUS41 KPHI 042110 AAA
TAFPHL
TAF AMD
KPHL 042110Z 0421/0524 33011KT P6SM BKN045
     FM042300 31007KT P6SM BKN035 OVC120
     FM050500 36011KT 6SM -RA OVC030
     FM050700 35013KT 3SM -SNRA OVC020
     FM050900 35012KT 1SM -SN OVC010
     FM051200 35013G21KT 5SM -SN SCT010 BKN025
     FM051400 33015G28KT P6SM SCT050 BKN100
     FM052300 31010KT P6SM SCT050=



000
FTUS41 KPHI 042023 AAA
TAFACY
TAF AMD
KACY 042023Z 0420/0518 34007KT 6SM -RA BKN035 OVC120
      TEMPO 0420/0424 3SM RA BKN025
     FM050000 32008KT 6SM -RA OVC025
     FM050600 33010KT 2SM -SNRA OVC010
     FM050800 35013KT 1/2SM SN OVC003
     FM051400 35013G21KT 3SM -SN OVC015
     FM051600 33015G28KT 5SM -SN SCT010 BKN025=



000
FTUS41 KPHI 042023 AAA
TAFACY
TAF AMD
KACY 042023Z 0420/0518 34007KT 6SM -RA BKN035 OVC120
      TEMPO 0420/0424 3SM RA BKN025
     FM050000 32008KT 6SM -RA OVC025
     FM050600 33010KT 2SM -SNRA OVC010
     FM050800 35013KT 1/2SM SN OVC003
     FM051400 35013G21KT 3SM -SN OVC015
     FM051600 33015G28KT 5SM -SN SCT010 BKN025=



000
FTUS41 KPHI 041735
TAFRDG
TAF
KRDG 041735Z 0418/0518 31011KT P6SM FEW030 BKN200
     FM050000 34007KT P6SM BKN040 OVC120
     FM050700 01011KT 6SM -SNRA OVC030
     FM050900 36013KT 3SM -SN OVC020
     FM051100 35012KT P6SM SCT030 BKN100
     FM051300 33015G28KT P6SM SCT050 BKN100=



000
FTUS41 KPHI 041735
TAFILG
TAF
KILG 041735Z 0418/0518 31012KT P6SM BKN045
     FM042300 35009KT P6SM BKN035 OVC120
     FM050500 35012KT 6SM -RA OVC030
     FM050700 34013KT 3SM -SNRA OVC020
     FM050900 34016KT 1SM -SN OVC010
     FM051200 35013G21KT 5SM -SN SCT010 BKN025
     FM051400 33015G28KT P6SM SCT050 BKN100=



000
FTUS41 KPHI 041735
TAFPHL
TAF
KPHL 041735Z 0418/0524 34012KT P6SM BKN045
     FM042300 31007KT P6SM BKN035 OVC120
     FM050500 36011KT 6SM -RA OVC030
     FM050700 35013KT 3SM -SNRA OVC020
     FM050900 35012KT 1SM -SN OVC010
     FM051200 35013G21KT 5SM -SN SCT010 BKN025
     FM051400 33015G28KT P6SM SCT050 BKN100
     FM052300 31010KT P6SM SCT050=



000
FTUS41 KPHI 041735
TAFMIV
TAF
KMIV 041735Z 0418/0518 35012KT P6SM BKN045
     FM042300 32007KT P6SM BKN035 OVC120
     FM050200 33008KT 6SM -RA OVC025
     FM050600 34012KT 2SM -SNRA OVC010
     FM050800 35013KT 1/2SM SN OVC006
     FM051300 35013G21KT 3SM -SN OVC015
     FM051500 33015G28KT 5SM -SN SCT010 BKN025=



000
FTUS41 KPHI 041735
TAFACY
TAF
KACY 041735Z 0418/0518 30012KT P6SM BKN045
     FM042300 32007KT P6SM BKN035 OVC120
     FM050100 32008KT 6SM -RA OVC025
     FM050600 33010KT 2SM -SNRA OVC010
     FM050800 35013KT 1/2SM SN OVC003
     FM051400 35013G21KT 3SM -SN OVC015
     FM051600 33015G28KT 5SM -SN SCT010 BKN025=



000
FTUS41 KPHI 041735
TAFPNE
TAF
KPNE 041735Z 0418/0518 31012KT P6SM BKN045
     FM042300 35007KT P6SM BKN035 OVC120
     FM050500 36011KT 6SM -RA OVC030
     FM050700 35013KT 3SM -SNRA OVC020
     FM050900 35012KT 1SM -SN OVC010
     FM051200 35013G21KT 5SM -SN SCT010 BKN025
     FM051400 33015G28KT P6SM SCT050 BKN100=



000
FTUS41 KPHI 041735
TAFABE
TAF
KABE 041735Z 0418/0518 30011KT P6SM FEW030 BKN200
     FM050000 34006KT P6SM BKN040 OVC120
     FM050700 01011KT 6SM -SNRA OVC030
     FM050900 36013KT 3SM -SN OVC020
     FM051100 35013KT P6SM SCT030 BKN100
     FM051500 33015G28KT P6SM SCT050 BKN100=



000
FTUS41 KPHI 041735
TAFTTN
TAF
KTTN 041735Z 0418/0518 32012KT P6SM SCT040 BKN200
     FM042300 35007KT P6SM BKN035 OVC120
     FM050500 01011KT 6SM -RA OVC030
     FM050700 36013KT 3SM -SNRA OVC020
     FM050900 36012KT 1SM -SN OVC015
     FM051300 35013G21KT 5SM -SN SCT010 BKN025
     FM051500 33015G28KT P6SM SCT050 BKN100=



000
FTUS41 KPHI 041421 AAA
TAFACY
TAF AMD
KACY 041421Z 0414/0512 33013KT P6SM BKN015 OVC045
     FM041600 30012KT P6SM BKN045
     FM042300 32007KT P6SM BKN035 OVC120
     FM050100 32008KT 6SM -RA OVC025
     FM050600 33010KT 2SM -SNRA OVC010
     FM050800 35012KT 1/2SM SN OVC003=



000
FTUS41 KPHI 041421 AAA
TAFMIV
TAF AMD
KMIV 041421Z 0414/0512 35012KT P6SM BKN045
     FM042300 32007KT P6SM BKN035 OVC120
     FM050200 33008KT 6SM -RA OVC025
     FM050600 34012KT 2SM -SNRA OVC010
     FM050800 35013KT 1/2SM SN OVC006=



000
FTUS41 KPHI 041411 AAA
TAFPHL
TAF AMD
KPHL 041411Z 0414/0518 34012KT P6SM BKN045
     FM042300 31007KT P6SM BKN035 OVC120
     FM050500 36011KT 6SM -RA OVC030
     FM050700 35013KT 3SM -SNRA OVC020
     FM050900 35012KT 1SM -SN OVC010
     FM051200 36013G21KT P6SM SCT030 BKN070=



000
FTUS41 KPHI 041147
TAFACY
TAF
KACY 041147Z 0412/0512 23007KT 5SM BR BKN008 OVC015
     FM041300 28009KT P6SM BKN015 OVC045
     FM041400 30012KT P6SM BKN045
     FM042300 32007KT P6SM BKN035 OVC120
     FM050100 32008KT 6SM -RA OVC025
     FM050600 33010KT 2SM -SNRA OVC010
     FM050800 35012KT 1/2SM SN OVC003=



000
FTUS41 KPHI 041147
TAFPNE
TAF
KPNE 041147Z 0412/0512 30008KT 5SM BR SCT006 OVC015
     FM041230 31012KT P6SM BKN045
     FM042300 35007KT P6SM BKN035 OVC120
     FM050500 36011KT 6SM -RA OVC030
     FM050700 35013KT 3SM -SNRA OVC020
     FM050900 35012KT 1SM -SN OVC010=



000
FTUS41 KPHI 041147
TAFMIV
TAF
KMIV 041147Z 0412/0512 25007KT 5SM BR BKN006 OVC015
     FM041300 28008KT P6SM BKN015 OVC045
     FM041400 30011KT P6SM BKN045
     FM042300 32007KT P6SM BKN035 OVC120
     FM050200 33008KT 6SM -RA OVC025
     FM050600 34012KT 2SM -SNRA OVC010
     FM050800 35013KT 1/2SM SN OVC006=



000
FTUS41 KPHI 041147
TAFPHL
TAF
KPHL 041147Z 0412/0518 29010KT 3SM BR BKN006 OVC015
     FM041230 30011KT P6SM BKN015 OVC045
     FM041300 32012KT P6SM BKN045
     FM042300 35007KT P6SM BKN035 OVC120
     FM050500 36011KT 6SM -RA OVC030
     FM050700 35013KT 3SM -SNRA OVC020
     FM050900 35012KT 1SM -SN OVC010
     FM051200 36013G21KT P6SM SCT030 BKN070=



000
FTUS41 KPHI 041147
TAFILG
TAF
KILG 041147Z 0412/0512 32012KT P6SM SCT010 OVC020
     FM041230 31012KT P6SM BKN045
     FM042300 35009KT P6SM BKN035 OVC120
     FM050500 35012KT 6SM -RA OVC030
     FM050700 34013KT 3SM -SNRA OVC020
     FM050900 34016KT 1SM -SN OVC010=



000
FTUS41 KPHI 041147
TAFTTN
TAF
KTTN 041147Z 0412/0512 32005KT 2SM BR OVC005
     FM041230 32006KT 5SM BR BKN015 OVC040
     FM041300 32007KT P6SM FEW015 BKN040
     FM041700 32012KT P6SM SCT040 BKN200
     FM042300 35007KT P6SM BKN035 OVC120
     FM050600 01011KT 6SM -RA OVC030
     FM050700 36013KT 3SM -SNRA OVC020
     FM050900 36012KT 1SM -SN OVC015=



000
FTUS41 KPHI 041147
TAFABE
TAF
KABE 041147Z 0412/0512 00000KT 5SM BR SCT015 OVC035
     FM041230 30006KT P6SM BKN040 BKN250
     FM041700 30011KT P6SM FEW030 BKN200
     FM050000 34006KT P6SM BKN040 OVC120=



000
FTUS41 KPHI 041147
TAFRDG
TAF
KRDG 041147Z 0412/0512 30008KT P6SM BKN040 BKN250
     FM041700 31011KT P6SM FEW030 BKN200
     FM050000 34007KT P6SM BKN040 OVC120=



000
FTUS41 KPHI 041147
TAFPHL
TAF
KPHL 041147Z 0412/0518 29010KT 3SM BR BKN006 OVC015
     FM041230 30011KT P6SM BKN015 OVC045
     FM041300 32012KT P6SM BKN045
     FM042300 35007KT P6SM BKN035 OVC120
     FM050500 36011KT 6SM -RA OVC030
     FM050700 35013KT 3SM -SNRA OVC020
     FM050900 35012KT 1SM -SN OVC010
     FM051200 36013G21KT P6SM SCT030 BKN070=



000
FTUS41 KPHI 041147
TAFMIV
TAF
KMIV 041147Z 0412/0512 25007KT 5SM BR BKN006 OVC015
     FM041300 28008KT P6SM BKN015 OVC045
     FM041400 30011KT P6SM BKN045
     FM042300 32007KT P6SM BKN035 OVC120
     FM050200 33008KT 6SM -RA OVC025
     FM050600 34012KT 2SM -SNRA OVC010
     FM050800 35013KT 1/2SM SN OVC006=



000
FTUS41 KPHI 041147
TAFACY
TAF
KACY 041147Z 0412/0512 23007KT 5SM BR BKN008 OVC015
     FM041300 28009KT P6SM BKN015 OVC045
     FM041400 30012KT P6SM BKN045
     FM042300 32007KT P6SM BKN035 OVC120
     FM050100 32008KT 6SM -RA OVC025
     FM050600 33010KT 2SM -SNRA OVC010
     FM050800 35012KT 1/2SM SN OVC003=



000
FTUS41 KPHI 041147
TAFPNE
TAF
KPNE 041147Z 0412/0512 30008KT 5SM BR SCT006 OVC015
     FM041230 31012KT P6SM BKN045
     FM042300 35007KT P6SM BKN035 OVC120
     FM050500 36011KT 6SM -RA OVC030
     FM050700 35013KT 3SM -SNRA OVC020
     FM050900 35012KT 1SM -SN OVC010=



000
FTUS41 KPHI 041147
TAFABE
TAF
KABE 041147Z 0412/0512 00000KT 5SM BR SCT015 OVC035
     FM041230 30006KT P6SM BKN040 BKN250
     FM041700 30011KT P6SM FEW030 BKN200
     FM050000 34006KT P6SM BKN040 OVC120=



000
FTUS41 KPHI 041147
TAFTTN
TAF
KTTN 041147Z 0412/0512 32005KT 2SM BR OVC005
     FM041230 32006KT 5SM BR BKN015 OVC040
     FM041300 32007KT P6SM FEW015 BKN040
     FM041700 32012KT P6SM SCT040 BKN200
     FM042300 35007KT P6SM BKN035 OVC120
     FM050600 01011KT 6SM -RA OVC030
     FM050700 36013KT 3SM -SNRA OVC020
     FM050900 36012KT 1SM -SN OVC015=



000
FTUS41 KPHI 041147
TAFRDG
TAF
KRDG 041147Z 0412/0512 30008KT P6SM BKN040 BKN250
     FM041700 31011KT P6SM FEW030 BKN200
     FM050000 34007KT P6SM BKN040 OVC120=



000
FTUS41 KPHI 041147
TAFILG
TAF
KILG 041147Z 0412/0512 32012KT P6SM SCT010 OVC020
     FM041230 31012KT P6SM BKN045
     FM042300 35009KT P6SM BKN035 OVC120
     FM050500 35012KT 6SM -RA OVC030
     FM050700 34013KT 3SM -SNRA OVC020
     FM050900 34016KT 1SM -SN OVC010=



000
FTUS41 KPHI 041053 AAA
TAFTTN
TAF AMD
KTTN 041053Z 0411/0506 25004KT 1/4SM FG VV002
     FM041200 30009KT 3SM BR SCT003 BKN015
     FM041300 31007KT P6SM FEW015 BKN050
     FM041700 32012KT P6SM FEW030 BKN200
     FM042200 35007KT P6SM SCT035 BKN150=



000
FTUS41 KPHI 041053 AAA
TAFTTN
TAF AMD
KTTN 041053Z 0411/0506 25004KT 1/4SM FG VV002
     FM041200 30009KT 3SM BR SCT003 BKN015
     FM041300 31007KT P6SM FEW015 BKN050
     FM041700 32012KT P6SM FEW030 BKN200
     FM042200 35007KT P6SM SCT035 BKN150=



000
FTUS41 KPHI 041048 AAA
TAFABE
TAF AMD
KABE 041048Z 0411/0506 26006KT 1/2SM FG SCT004 OVC015
     FM041130 33009KT 3SM BR SCT004 BKN015
     FM041300 30007KT P6SM BKN050 BKN250
     FM041700 30012KT P6SM FEW030 BKN200
     FM042200 34006KT P6SM SCT040 BKN150=



000
FTUS41 KPHI 041045 AAA
TAFRDG
TAF AMD
KRDG 041045Z 0411/0506 30006KT 4SM BR SCT003 BKN012
     FM041300 30008KT P6SM BKN050 BKN250
     FM041700 31011KT P6SM FEW030 BKN200
     FM042200 33006KT P6SM SCT040 BKN150=



000
FTUS41 KPHI 041045 AAA
TAFRDG
TAF AMD
KRDG 041045Z 0411/0506 30006KT 4SM BR SCT003 BKN012
     FM041300 30008KT P6SM BKN050 BKN250
     FM041700 31011KT P6SM FEW030 BKN200
     FM042200 33006KT P6SM SCT040 BKN150=



000
FTUS41 KPHI 040914 AAA
TAFPHL
TAF AMD
KPHL 040914Z 0409/0512 23006KT 4SM BR OVC005
      TEMPO 0409/0411 2SM BR OVC004
     FM041200 30014KT P6SM FEW004 BKN009
     FM041300 31010KT P6SM BKN050
     FM041600 32011G19KT P6SM FEW030 BKN200
     FM042200 33007KT P6SM BKN040 BKN150
     FM050600 36010KT 6SM -RA SCT030 OVC050
     FM050800 36012KT 3SM -SNRA OVC025=



000
FTUS41 KPHI 040914 AAA
TAFPHL
TAF AMD
KPHL 040914Z 0409/0512 23006KT 4SM BR OVC005
      TEMPO 0409/0411 2SM BR OVC004
     FM041200 30014KT P6SM FEW004 BKN009
     FM041300 31010KT P6SM BKN050
     FM041600 32011G19KT P6SM FEW030 BKN200
     FM042200 33007KT P6SM BKN040 BKN150
     FM050600 36010KT 6SM -RA SCT030 OVC050
     FM050800 36012KT 3SM -SNRA OVC025=



000
FTUS41 KPHI 040550
TAFPHL
TAF
KPHL 040550Z 0406/0512 20007KT 6SM BR OVC005
      TEMPO 0407/0411 2SM BR OVC003
     FM041200 30013KT P6SM FEW004 BKN009
     FM041300 31010KT P6SM BKN060
     FM041600 32011G19KT P6SM FEW030 BKN200
     FM042200 33007KT P6SM BKN040 BKN150
     FM050700 36010KT 5SM -SNRA SCT030 OVC050=



000
FTUS41 KPHI 040550
TAFPHL
TAF
KPHL 040550Z 0406/0512 20007KT 6SM BR OVC005
      TEMPO 0407/0411 2SM BR OVC003
     FM041200 30013KT P6SM FEW004 BKN009
     FM041300 31010KT P6SM BKN060
     FM041600 32011G19KT P6SM FEW030 BKN200
     FM042200 33007KT P6SM BKN040 BKN150
     FM050700 36010KT 5SM -SNRA SCT030 OVC050=



000
FTUS41 KPHI 040550
TAFTTN
TAF
KTTN 040550Z 0406/0506 21005KT 3SM BR SCT003 OVC006
      TEMPO 0406/0410 1/4SM FG OVC004
     FM041200 33009KT 3SM BR SCT003 BKN050
     FM041300 32007KT P6SM BKN060
     FM041700 32012KT P6SM FEW030 BKN200
     FM042200 35007KT P6SM SCT035 BKN150=



000
FTUS41 KPHI 040550
TAFPNE
TAF
KPNE 040550Z 0406/0506 21005KT 6SM BR OVC008
      TEMPO 0407/0411 2SM BR OVC004
     FM041200 30011KT P6SM FEW004 BKN009
     FM041300 31009KT P6SM BKN060
     FM041700 31012KT P6SM FEW030 BKN200
     FM042200 34007KT P6SM BKN035 BKN150=



000
FTUS41 KPHI 040550
TAFMIV
TAF
KMIV 040550Z 0406/0506 20005KT 5SM BR OVC005
      TEMPO 0406/0410 3/4SM BR OVC002
     FM041200 30007KT 6SM BR FEW002 OVC006
     FM041400 31012KT P6SM BKN060
     FM041600 32010KT P6SM FEW030 BKN200
     FM042200 31007KT P6SM BKN040 BKN150
     FM050200 32005KT 5SM -RA OVC025
     FM050500 33007KT 1SM -SNRA OVC010=



000
FTUS41 KPHI 040550
TAFACY
TAF
KACY 040550Z 0406/0506 20010KT P6SM BKN005 OVC050
      TEMPO 0406/0410 2SM BR OVC003
     FM041200 30007KT P6SM FEW003 OVC006
     FM041400 31012KT P6SM OVC060
     FM042200 31007KT P6SM BKN040 BKN150
     FM050000 32005KT 5SM -RA OVC025
     FM050400 33007KT 1SM -SNRA OVC009=



000
FTUS41 KPHI 040550
TAFILG
TAF
KILG 040550Z 0406/0506 16005KT 1SM BR SCT002 OVC006
      TEMPO 0406/0410 1/2SM FG VV002
     FM041200 31012KT 5SM BR SCT003 BKN050
     FM041300 32008KT P6SM BKN060
     FM041700 31013KT P6SM FEW030 BKN200
     FM042200 33008KT P6SM BKN040 BKN150=



000
FTUS41 KPHI 040550
TAFABE
TAF
KABE 040550Z 0406/0506 00000KT 1/2SM FG OVC004
      TEMPO 0406/0410 1/4SM FG VV003
     FM041100 33006KT 3SM BR SCT003 BKN045
     FM041300 30007KT P6SM BKN250
     FM041700 30009G17KT P6SM SCT030 BKN200
     FM042200 34006KT P6SM SCT030 BKN150=



000
FTUS41 KPHI 040550
TAFRDG
TAF
KRDG 040550Z 0406/0506 29003KT 3/4SM BR BKN004
      TEMPO 0406/0410 1/4SM FG VV003
     FM041100 32006KT 3SM BR SCT003 BKN045
     FM041300 30008KT P6SM BKN250
     FM041700 31009G17KT P6SM SCT030 BKN200
     FM042200 33006KT P6SM SCT030 BKN150=



000
FTUS41 KPHI 040550
TAFABE
TAF
KABE 040550Z 0406/0506 00000KT 1/2SM FG OVC004
      TEMPO 0406/0410 1/4SM FG VV003
     FM041100 33006KT 3SM BR SCT003 BKN045
     FM041300 30007KT P6SM BKN250
     FM041700 30009G17KT P6SM SCT030 BKN200
     FM042200 34006KT P6SM SCT030 BKN150=



000
FTUS41 KPHI 040550
TAFTTN
TAF
KTTN 040550Z 0406/0506 21005KT 3SM BR SCT003 OVC006
      TEMPO 0406/0410 1/4SM FG OVC004
     FM041200 33009KT 3SM BR SCT003 BKN050
     FM041300 32007KT P6SM BKN060
     FM041700 32012KT P6SM FEW030 BKN200
     FM042200 35007KT P6SM SCT035 BKN150=



000
FTUS41 KPHI 040550
TAFMIV
TAF
KMIV 040550Z 0406/0506 20005KT 5SM BR OVC005
      TEMPO 0406/0410 3/4SM BR OVC002
     FM041200 30007KT 6SM BR FEW002 OVC006
     FM041400 31012KT P6SM BKN060
     FM041600 32010KT P6SM FEW030 BKN200
     FM042200 31007KT P6SM BKN040 BKN150
     FM050200 32005KT 5SM -RA OVC025
     FM050500 33007KT 1SM -SNRA OVC010=



000
FTUS41 KPHI 040550
TAFACY
TAF
KACY 040550Z 0406/0506 20010KT P6SM BKN005 OVC050
      TEMPO 0406/0410 2SM BR OVC003
     FM041200 30007KT P6SM FEW003 OVC006
     FM041400 31012KT P6SM OVC060
     FM042200 31007KT P6SM BKN040 BKN150
     FM050000 32005KT 5SM -RA OVC025
     FM050400 33007KT 1SM -SNRA OVC009=



000
FTUS41 KPHI 040550
TAFILG
TAF
KILG 040550Z 0406/0506 16005KT 1SM BR SCT002 OVC006
      TEMPO 0406/0410 1/2SM FG VV002
     FM041200 31012KT 5SM BR SCT003 BKN050
     FM041300 32008KT P6SM BKN060
     FM041700 31013KT P6SM FEW030 BKN200
     FM042200 33008KT P6SM BKN040 BKN150=



000
FTUS41 KPHI 040550
TAFPNE
TAF
KPNE 040550Z 0406/0506 21005KT 6SM BR OVC008
      TEMPO 0407/0411 2SM BR OVC004
     FM041200 30011KT P6SM FEW004 BKN009
     FM041300 31009KT P6SM BKN060
     FM041700 31012KT P6SM FEW030 BKN200
     FM042200 34007KT P6SM BKN035 BKN150=



000
FTUS41 KPHI 040550
TAFRDG
TAF
KRDG 040550Z 0406/0506 29003KT 3/4SM BR BKN004
      TEMPO 0406/0410 1/4SM FG VV003
     FM041100 32006KT 3SM BR SCT003 BKN045
     FM041300 30008KT P6SM BKN250
     FM041700 31009G17KT P6SM SCT030 BKN200
     FM042200 33006KT P6SM SCT030 BKN150=



000
FTUS41 KPHI 040459 AAB
TAFMIV
TAF AMD
KMIV 040459Z 0405/0424 20003KT 3SM BR OVC008
      TEMPO 0405/0409 1SM BR BKN002
     FM041000 30008KT 5SM BR OVC040
     FM041200 32010KT P6SM OVC050=



000
FTUS41 KPHI 040459 AAB
TAFMIV
TAF AMD
KMIV 040459Z 0405/0424 20003KT 3SM BR OVC008
      TEMPO 0405/0409 1SM BR BKN002
     FM041000 30008KT 5SM BR OVC040
     FM041200 32010KT P6SM OVC050=



000
FTUS41 KPHI 040458 AAC
TAFTTN
TAF AMD
KTTN 040458Z 0405/0424 00000KT 1 1/2SM BR SCT003 OVC012
      TEMPO 0405/0409 1/4SM FG
     FM041000 31006KT 5SM BR OVC015
     FM041200 32011KT P6SM SCT050=



000
FTUS41 KPHI 040245 AAA
TAFRDG
TAF AMD
KRDG 040245Z 0403/0424 19010KT P6SM BKN050
      TEMPO 0403/0406 1/4SM FG OVC005
     FM040600 29003KT 1/4SM FG BKN005
     FM040900 31007KT 5SM BR BKN200
     FM041200 31009KT P6SM BKN250=



000
FTUS41 KPHI 040235 AAA
TAFABE
TAF AMD
KABE 040235Z 0403/0424 17010KT P6SM BKN050
      TEMPO 0403/0405 30005KT 1/4SM FG VV002
     FM040500 27007KT 1/2SM FG BKN005
     FM040800 29004KT 4SM BR BKN015
     FM041000 29008KT P6SM OVC200=



000
FTUS41 KPHI 040235 AAA
TAFABE
TAF AMD
KABE 040235Z 0403/0424 17010KT P6SM BKN050
      TEMPO 0403/0405 30005KT 1/4SM FG VV002
     FM040500 27007KT 1/2SM FG BKN005
     FM040800 29004KT 4SM BR BKN015
     FM041000 29008KT P6SM OVC200=



000
FTUS41 KPHI 040121 AAA
TAFILG
TAF AMD
KILG 040121Z 0401/0424 21011KT 6SM BR OVC090
      TEMPO 0401/0404 2SM BR OVC009
     FM040400 20005KT 2SM BR OVC009
     FM040900 30007KT 5SM BR SCT050
     FM041000 33011KT P6SM BKN200=



000
FTUS41 KPHI 040121 AAA
TAFILG
TAF AMD
KILG 040121Z 0401/0424 21011KT 6SM BR OVC090
      TEMPO 0401/0404 2SM BR OVC009
     FM040400 20005KT 2SM BR OVC009
     FM040900 30007KT 5SM BR SCT050
     FM041000 33011KT P6SM BKN200=



000
FTUS41 KPHI 040119 AAA
TAFPNE
TAF AMD
KPNE 040119Z 0401/0424 21011KT 6SM BR OVC090
      TEMPO 0403/0406 2SM BR OVC009
     FM040600 20005KT 2SM BR OVC007
     FM040900 31006KT 5SM BR OVC035
     FM041100 32011KT P6SM OVC050=



000
FTUS41 KPHI 040118 AAB
TAFTTN
TAF AMD
KTTN 040118Z 0401/0424 19010KT 6SM BR OVC070
      TEMPO 0403/0406 2SM BR BKN009
     FM040600 21005KT 1SM BR OVC009
     FM040900 31006KT 5SM BR OVC035
     FM041200 32011KT P6SM SCT050=



000
FTUS41 KPHI 040107 AAA
TAFPHL
TAF AMD
KPHL 040107Z 0401/0506 21010KT P6SM OVC090
      TEMPO 0403/0406 3SM BR OVC010
     FM040600 21006KT 2SM BR OVC009
     FM040800 28005KT 5SM BR OVC010
     FM041100 32007KT P6SM SCT050
     FM041400 33010G15KT P6SM BKN200
     FM041900 32008KT P6SM BKN200=



000
FTUS41 KPHI 040107 AAA
TAFPHL
TAF AMD
KPHL 040107Z 0401/0506 21010KT P6SM OVC090
      TEMPO 0403/0406 3SM BR OVC010
     FM040600 21006KT 2SM BR OVC009
     FM040800 28005KT 5SM BR OVC010
     FM041100 32007KT P6SM SCT050
     FM041400 33010G15KT P6SM BKN200
     FM041900 32008KT P6SM BKN200=



000
FTUS41 KPHI 040104 AAA
TAFMIV
TAF AMD
KMIV 040104Z 0401/0424 19010KT 6SM BR OVC070
      TEMPO 0403/0405 2SM BR OVC010
     FM040500 20003KT 2SM BR OVC008
     FM040700 30008KT 5SM BR OVC040
     FM041200 32010KT P6SM OVC050=



000
FTUS41 KPHI 040104 AAA
TAFMIV
TAF AMD
KMIV 040104Z 0401/0424 19010KT 6SM BR OVC070
      TEMPO 0403/0405 2SM BR OVC010
     FM040500 20003KT 2SM BR OVC008
     FM040700 30008KT 5SM BR OVC040
     FM041200 32010KT P6SM OVC050=



000
FTUS41 KPHI 040103 AAA
TAFACY
TAF AMD
KACY 040103Z 0401/0424 19010KT 6SM BR OVC090
      TEMPO 0403/0405 2SM -RA BR OVC010
     FM040500 20003KT 2SM BR OVC008
     FM040800 30008KT 5SM BR OVC040
     FM041200 32010KT P6SM OVC070=



000
FTUS41 KPHI 040103 AAA
TAFACY
TAF AMD
KACY 040103Z 0401/0424 19010KT 6SM BR OVC090
      TEMPO 0403/0405 2SM -RA BR OVC010
     FM040500 20003KT 2SM BR OVC008
     FM040800 30008KT 5SM BR OVC040
     FM041200 32010KT P6SM OVC070=



000
FTUS41 KPHI 040032 AAA
TAFTTN
TAF AMD
KTTN 040032Z 0401/0424 19010KT 6SM BR OVC070
      TEMPO 0401/0403 2SM -RA BR BKN004
     FM040300 21005KT 1SM BR OVC007
     FM040900 31006KT 5SM BR OVC035
     FM041200 32011KT P6SM SCT050=



000
FTUS41 KPHI 032335
TAFRDG
TAF
KRDG 032335Z 0400/0424 19010KT P6SM BKN050
      TEMPO 0401/0403 32005KT 5SM BR BKN015
     FM040400 29003KT 1SM BR BKN005
     FM040900 31007KT 5SM BR BKN200
     FM041200 31009KT P6SM BKN250=



000
FTUS41 KPHI 032335
TAFMIV
TAF
KMIV 032335Z 0400/0424 19010KT 4SM BR OVC070
      TEMPO 0400/0403 2SM -RA BR OVC010
     FM040300 20003KT 2SM BR OVC008
     FM040700 30008KT 5SM BR OVC040
     FM041200 32010KT P6SM OVC050=



000
FTUS41 KPHI 032335
TAFABE
TAF
KABE 032335Z 0400/0424 17010KT P6SM BKN050
      TEMPO 0401/0404 30005KT 5SM BR BKN015
     FM040400 27007KT 1SM BR BKN005
     FM040700 28004KT 4SM BR BKN015
     FM041000 28008KT P6SM OVC200=



000
FTUS41 KPHI 032335
TAFPHL
TAF
KPHL 032335Z 0400/0506 21005KT P6SM OVC090
      TEMPO 0401/0404 2SM -RA BR OVC010
     FM040400 21006KT 2SM BR OVC009
     FM040800 28005KT 5SM BR OVC010
     FM041100 32007KT P6SM SCT050
     FM041400 33010G15KT P6SM BKN200
     FM041900 32008KT P6SM BKN200=



000
FTUS41 KPHI 032335
TAFPNE
TAF
KPNE 032335Z 0400/0424 21005KT 6SM BR OVC090
      TEMPO 0400/0403 1SM -RA BR OVC015
     FM040300 20005KT 1SM BR OVC007
     FM040900 31006KT 5SM BR OVC035
     FM041100 32011KT P6SM OVC050=



000
FTUS41 KPHI 032335
TAFILG
TAF
KILG 032335Z 0400/0424 18005KT 3SM BR OVC015
      TEMPO 0400/0403 1SM -RA BR OVC005
     FM040300 20005KT 2SM BR OVC009
     FM040900 30007KT 5SM BR SCT050
     FM041000 33011KT P6SM BKN200=



000
FTUS41 KPHI 032335
TAFTTN
TAF
KTTN 032335Z 0400/0424 19010KT 6SM BR OVC070
      TEMPO 0400/0402 2SM -RA BR
     FM040200 21005KT 1SM BR OVC007
     FM040900 31006KT 5SM BR OVC035
     FM041200 32011KT P6SM SCT050=



000
FTUS41 KPHI 032335
TAFACY
TAF
KACY 032335Z 0400/0424 19010KT 4SM BR OVC070
      TEMPO 0400/0403 1SM -RA BR OVC010
     FM040300 20003KT 2SM BR OVC008
     FM040800 30008KT 5SM BR OVC040
     FM041200 32010KT P6SM OVC070=



000
FTUS41 KPHI 032335
TAFTTN
TAF
KTTN 032335Z 0400/0424 19010KT 6SM BR OVC070
      TEMPO 0400/0402 2SM -RA BR
     FM040200 21005KT 1SM BR OVC007
     FM040900 31006KT 5SM BR OVC035
     FM041200 32011KT P6SM SCT050=



000
FTUS41 KPHI 032335
TAFILG
TAF
KILG 032335Z 0400/0424 18005KT 3SM BR OVC015
      TEMPO 0400/0403 1SM -RA BR OVC005
     FM040300 20005KT 2SM BR OVC009
     FM040900 30007KT 5SM BR SCT050
     FM041000 33011KT P6SM BKN200=



000
FTUS41 KPHI 032335
TAFRDG
TAF
KRDG 032335Z 0400/0424 19010KT P6SM BKN050
      TEMPO 0401/0403 32005KT 5SM BR BKN015
     FM040400 29003KT 1SM BR BKN005
     FM040900 31007KT 5SM BR BKN200
     FM041200 31009KT P6SM BKN250=



000
FTUS41 KPHI 032335
TAFPHL
TAF
KPHL 032335Z 0400/0506 21005KT P6SM OVC090
      TEMPO 0401/0404 2SM -RA BR OVC010
     FM040400 21006KT 2SM BR OVC009
     FM040800 28005KT 5SM BR OVC010
     FM041100 32007KT P6SM SCT050
     FM041400 33010G15KT P6SM BKN200
     FM041900 32008KT P6SM BKN200=



000
FTUS41 KPHI 032335
TAFMIV
TAF
KMIV 032335Z 0400/0424 19010KT 4SM BR OVC070
      TEMPO 0400/0403 2SM -RA BR OVC010
     FM040300 20003KT 2SM BR OVC008
     FM040700 30008KT 5SM BR OVC040
     FM041200 32010KT P6SM OVC050=



000
FTUS41 KPHI 032335
TAFPNE
TAF
KPNE 032335Z 0400/0424 21005KT 6SM BR OVC090
      TEMPO 0400/0403 1SM -RA BR OVC015
     FM040300 20005KT 1SM BR OVC007
     FM040900 31006KT 5SM BR OVC035
     FM041100 32011KT P6SM OVC050=



000
FTUS41 KPHI 032335
TAFACY
TAF
KACY 032335Z 0400/0424 19010KT 4SM BR OVC070
      TEMPO 0400/0403 1SM -RA BR OVC010
     FM040300 20003KT 2SM BR OVC008
     FM040800 30008KT 5SM BR OVC040
     FM041200 32010KT P6SM OVC070=



000
FTUS41 KPHI 032335
TAFABE
TAF
KABE 032335Z 0400/0424 17010KT P6SM BKN050
      TEMPO 0401/0404 30005KT 5SM BR BKN015
     FM040400 27007KT 1SM BR BKN005
     FM040700 28004KT 4SM BR BKN015
     FM041000 28008KT P6SM OVC200=



000
FTUS41 KPHI 032237 AAD
TAFABE
TAF AMD
KABE 032237Z 0323/0418 17010G20KT 6SM BR OVC045
     FM040200 VRB03KT 2SM BR OVC009
     FM040600 27007KT 1SM BR OVC003
     FM040900 28008KT P6SM BKN060 OVC100
     FM041200 29008KT P6SM BKN250=



000
FTUS41 KPHI 032237 AAD
TAFABE
TAF AMD
KABE 032237Z 0323/0418 17010G20KT 6SM BR OVC045
     FM040200 VRB03KT 2SM BR OVC009
     FM040600 27007KT 1SM BR OVC003
     FM040900 28008KT P6SM BKN060 OVC100
     FM041200 29008KT P6SM BKN250=



000
FTUS41 KPHI 032235 AAB
TAFRDG
TAF AMD
KRDG 032235Z 0323/0418 16010G20KT 6SM BR SCT010 OVC050
     FM040200 VRB03KT 4SM BR OVC007
     FM040600 29003KT 1/2SM FG BKN003
     FM040900 31007KT P6SM OVC060
     FM041200 31009KT P6SM BKN250=



000
FTUS41 KPHI 032233 AAB
TAFACY
TAF AMD
KACY 032233Z 0323/0418 18011KT 5SM -SHRA BR SCT010 OVC025
      TEMPO 0323/0401 1SM SHRA BR BKN009
     FM040100 19008KT 2SM -RA BR OVC007
     FM041200 32009KT P6SM OVC050=



000
FTUS41 KPHI 032230 AAC
TAFILG
TAF AMD
KILG 032230Z 0323/0418 28010KT 5SM -SHRA BR SCT015 OVC035
      WS020/18050KT
      TEMPO 0323/0324 1SM SHRA BR BKN015
     FM040000 21005KT 3SM -SHRA BR OVC008
     FM040600 25005KT 4SM BR OVC012
     FM041100 32007KT P6SM OVC050
     FM041400 33010G15KT P6SM OVC050=



000
FTUS41 KPHI 032102 AAB
TAFPNE
TAF AMD
KPNE 032102Z 0321/0418 28010KT 5SM -SHRA BR SCT010 OVC040
      WS020/18050KT
      TEMPO 0321/0324 2SM SHRA BR BKN010
     FM040000 21005KT 3SM -SHRA BR OVC006
     FM040600 25005KT 1SM BR OVC007
     FM041000 31006KT 5SM BR OVC035
     FM041200 32007KT P6SM OVC050
     FM041400 33010G15KT P6SM OVC050=



000
FTUS41 KPHI 032101 AAB
TAFPHL
TAF AMD
KPHL 032101Z 0321/0424 27010KT 5SM -SHRA SCT025 OVC040
      WS020/18050KT
      TEMPO 0321/0324 2SM SHRA BR BKN025
     FM040000 21005KT 3SM -SHRA BR OVC006
     FM040600 25005KT 1SM BR OVC012
     FM041100 32007KT P6SM OVC050
     FM041400 33010G15KT P6SM OVC050=



000
FTUS41 KPHI 032101 AAB
TAFPHL
TAF AMD
KPHL 032101Z 0321/0424 27010KT 5SM -SHRA SCT025 OVC040
      WS020/18050KT
      TEMPO 0321/0324 2SM SHRA BR BKN025
     FM040000 21005KT 3SM -SHRA BR OVC006
     FM040600 25005KT 1SM BR OVC012
     FM041100 32007KT P6SM OVC050
     FM041400 33010G15KT P6SM OVC050=



000
FTUS41 KPHI 032059 AAA
TAFACY
TAF AMD
KACY 032059Z 0321/0418 18014G25KT 5SM -SHRA BR SCT010 OVC025
      TEMPO 0321/0324 2SM SHRA BR BKN010
     FM040000 19012G22KT 2SM +SHRA BR OVC006
     FM040400 19008KT 2SM -RA BR OVC007
     FM041200 32009KT P6SM OVC050=



000
FTUS41 KPHI 032058 AAB
TAFMIV
TAF AMD
KMIV 032058Z 0321/0418 26010G25KT 5SM -SHRA BR SCT025 OVC035
      TEMPO 0321/0324 2SM SHRA BR OVC025
     FM040000 19010G20KT 2SM +SHRA BR OVC006
     FM040300 20003KT 1SM -SHRA OVC005
     FM040900 30008KT 5SM BR OVC040
     FM041200 32010KT P6SM OVC050=



000
FTUS41 KPHI 032057 AAB
TAFILG
TAF AMD
KILG 032057Z 0321/0418 28010KT 5SM -SHRA BR SCT015 OVC035
      WS020/18050KT
      TEMPO 0321/0324 2SM SHRA BR BKN015
     FM040000 21005KT 3SM -SHRA BR OVC004
     FM040600 25005KT 1SM BR OVC012
     FM041100 32007KT P6SM OVC050
     FM041400 33010G15KT P6SM OVC050=



000
FTUS41 KPHI 032056 AAC
TAFABE
TAF AMD
KABE 032056Z 0321/0418 17010G20KT P6SM -SHRA SCT010 OVC045
      WS020/17045KT
      TEMPO 0321/0324 3SM SHRA BR BKN010
     FM040000 VRB03KT 3/4SM BR VCSH OVC006
     FM040600 27007KT 1/4SM FG OVC001
     FM040900 28008KT P6SM BKN060 OVC100
     FM041200 29008KT P6SM BKN250=



000
FTUS41 KPHI 032056 AAC
TAFABE
TAF AMD
KABE 032056Z 0321/0418 17010G20KT P6SM -SHRA SCT010 OVC045
      WS020/17045KT
      TEMPO 0321/0324 3SM SHRA BR BKN010
     FM040000 VRB03KT 3/4SM BR VCSH OVC006
     FM040600 27007KT 1/4SM FG OVC001
     FM040900 28008KT P6SM BKN060 OVC100
     FM041200 29008KT P6SM BKN250=



    US Dept of Commerce
    National Oceanic and Atmospheric Administration
    National Weather Service
    1325 East West Highway
    Silver Spring, MD 20910
    Page Author: NWS Internet Services Team
Disclaimer
Information Quality
Credits
Glossary
Privacy Policy
Freedom of Information Act (FOIA)
About Us
Career Opportunities